35 membres du club au Marathon de Montréal 2011

35 membres du club au Marathon de Montréal 2011

Voici les résultats de la fin de semaine. Trente-cinq membres ont participé au marathon à Montréal, parmi les 24000 participants (inscrits). Au départ on annonçait 3000 coureurs au marathon, et 8500 au demi (les stats officielles indiquent en fait 2620 partants au marathon 7148 au demi).

Quelques membres marathoniens

Mais ce fut une édition difficile pour plusieurs. Pour la petite histoire, on notera qu’il faisait chaud et surtout humide. Heureusement le soleil a attendu vers 11h40 avant de faire son apparition pour de bon. Plusieurs coureurs sont tombés, surtout dans les derniers kilomètres, et ont dû être secourus. Un athlète d’une trentaine d’année est malheureusement décédé, victime d’un arrêt cardiaque. C’était un bon coureur, qui aurait fait dans les 100 premiers. Ça met toute forme de performance en perspective.

Tout de même, félicitations à tous. En particulier se sont illustrés: Gilles et Ghislaine en finissant premiers de leur catégorie au marathon, et Mathieu et Nathalie sont montés sur le podium au 10km.

Enfin, on notera aussi la participation de Josée à un 12 heures à Ottawa, et Ken et Edwin au 105k du Défi Vélo Mag.

2011-09-25 - Marathon Oasis de Montreal

RangNom, PrénomDistTempsRang SRang CCateg
42k
128CADOTTE, Gilles42k3:18:28.8 (3:18:23.8)110/19671/40H60-64
400RANCOURT, Alain42k3:38:03.8 (3:37:58.2)356/196723/161H50-54
417SAVARD, Carl42k3:39:14.8 (3:38:15.1)373/196777/305H40-44
584BRUNEAU, Alain42k3:47:30.3 (3:47:27.2)514/196733/161H50-54
1097OUELLET, Odile42k4:09:38.7 (4:08:46.7)182/6529/34F50-54
1131COUTURE, Jocelyn42k4:11:00.4 (4:08:45.5)941/1967129/264H45-49
1185BEAULIEU, Ghislaine42k4:13:28.6 (4:12:34.3)210/6521/2F65-69
1260BRUNET, Jennifer42k4:16:47.3 (4:15:00.3)230/65252/133F25-29
1345BERNIER, Danielle42k4:19:57.8 (4:19:04.1)256/65230/83F40-44
1419PELLETIER, Manon42k4:23:04.6 (4:20:48.8)278/65213/34F50-54
1541MORIN, Stephane42k4:28:02.0 (4:26:15.0)1224/1967267/391H35-39
1701ST-PIERRE, Bruno42k4:35:35.3 (4:35:22.0)1328/1967222/305H40-44
1804JUTRAS, Nathalie42k4:39:44.3 (4:37:28.3)405/65245/74F45-49
1808BEAUREGARD, Pierre42k4:39:57.7 (4:37:06.7)1400/1967228/305H40-44
1829LETOURNEAU, Martin42k4:41:03.9 (4:40:26.4)1419/1967304/391H35-39
2381AUBE, Jean-Christian42k5:28:00.6 (5:24:17.2)1817/1967363/391H35-39
21k
25JUGANT, Laurent21k1:22:43.6 (1:22:41.6)23/38732/512H40-44
31CROTEAU, Dany21k1:23:56.3 (1:23:54.9)29/38738/551H25-29
1090CHABOT, Maude21k1:51:10.3 (1:48:51.6)221/327432/503F18-24
1288MARCHAND, Viviane21k1:53:27.4 (1:53:16.7)265/327418/325F45-49
1334GAGNE, Rejean21k1:54:00.8 (1:51:47.2)1050/3873104/412H45-49
1781BOURBEAU, Alain21k1:58:25.5 (1:54:43.4)1373/387399/326H50-54
1961MOREAU, Alexandra21k1:59:59.2 (1:57:41.6)477/327488/592F35-39
1975CAMBRONNE, Serge Alain21k2:00:09.0 (1:56:23.7)1493/3873140/412H45-49
1984LAFORTUNE, Guy21k2:00:12.0 (1:57:20.4)1500/3873112/326H50-54
3260DUPUIS, Gisèle21k2:10:06.9 (2:05:12.1)F55-59
3694POISSON, Stephanie21k2:13:22.8 (2:08:28.1)1225/3274161/381F40-44
3745BRUYERE, Nicole21k2:13:48.9 (2:09:11.5)1249/3274163/381F40-44
4758TESSIER, Francine21k2:22:09.7 (2:17:32.3)1763/3274343/620F30-34
5156ROY, Claude21k2:26:01.8 (2:25:27.5)3175/387337/64H60-64
5245JUTRAS, Lise-Andree21k2:27:02.4 (2:22:07.4)2034/327425/52F55-59
5849BEAUCAGE, Melanie21k2:35:20.8 (2:26:08.1)2427/3274463/620F30-34
6207GUILBAULT, Louise21k2:41:36.5 (2:31:46.0)2644/3274101/158F50-54
6339ANGERS, Linda21k2:45:01.0 (2:37:37.4)2727/3274105/158F50-54
6524HART, Dominique21k2:50:29.9 (2:41:11.9)2854/3274336/381F40-44
10k
4GIRARD, Mathieu10k35:56.6 (35:56.6)3/19611/275H35-39
11GOYER, Nathalie10k37:57.7 (37:57.7)2/34551/399F40-44
942MARTIN, Laurent10k56:51.6 (52:03.0)660/196171/232H40-44
1764PAQUIN, Daniel10k1:02:37.6 (56:15.1)1030/1961122/232H40-44
1k
1569LAROCQUE, Martin1k10:40.8 (7:11.0)799/1310236/439H13+

2011-09-24 - Defi Velo Mag

RangNom, PrénomDistTempsRang SRang CCateg
105k velo
475TRUEMAN, Kenneth105k velo3:36:25.3 (3:33:51.3)181/473H40-49
589SANCHEZ, Edwin105k velo3:43:47.3 (3:41:13.8)217/473H40-49

2011-09-24 - Sri Chinmoy Self-Transcendence

RangNom, PrénomDistTempsRang SRang CCateg
12h
5/14TREMBLAY, Josée12h90,19km1/2F
 

Laisser un commentaire

Votre adresse e-mail ne sera pas publiée. Les champs obligatoires sont indiqués avec *